sensor_id;sensor_type;location;lat;lon;timestamp;pressure;altitude;pressure_sealevel;temperature;humidity
45253;BME280;63171;50.520;30.486;2022-09-29T00:00:17;99049.44;;;11.65;100.00
45253;BME280;63171;50.520;30.486;2022-09-29T00:01:07;99055.16;;;11.47;100.00
45253;BME280;63171;50.520;30.486;2022-09-29T00:01:57;99057.31;;;11.53;100.00
45253;BME280;63171;50.520;30.486;2022-09-29T00:02:47;99056.59;;;11.63;100.00
45253;BME280;63171;50.520;30.486;2022-09-29T00:03:37;99055.53;;;11.65;100.00
45253;BME280;63171;50.520;30.486;2022-09-29T00:04:28;99064.25;;;11.32;100.00
45253;BME280;63171;50.520;30.486;2022-09-29T00:05:18;99063.03;;;11.47;100.00
45253;BME280;63171;50.520;30.486;2022-09-29T00:06:14;99056.38;;;11.54;100.00
45253;BME280;63171;50.520;30.486;2022-09-29T00:07:04;99057.19;;;11.66;100.00
45253;BME280;63171;50.520;30.486;2022-09-29T00:07:56;99058.75;;;11.80;100.00
45253;BME280;63171;50.520;30.486;2022-09-29T00:08:47;99052.53;;;11.81;100.00
45253;BME280;63171;50.520;30.486;2022-09-29T00:09:38;99052.78;;;11.67;100.00
45253;BME280;63171;50.520;30.486;2022-09-29T00:10:28;99063.28;;;11.55;100.00
45253;BME280;63171;50.520;30.486;2022-09-29T00:11:19;99063.03;;;11.47;100.00
45253;BME280;63171;50.520;30.486;2022-09-29T00:12:08;99058.16;;;11.20;100.00
45253;BME280;63171;50.520;30.486;2022-09-29T00:12:59;99061.28;;;11.14;100.00
45253;BME280;63171;50.520;30.486;2022-09-29T00:13:49;99067.59;;;11.12;100.00
45253;BME280;63171;50.520;30.486;2022-09-29T00:14:40;99062.44;;;11.21;100.00
45253;BME280;63171;50.520;30.486;2022-09-29T00:15:29;99070.19;;;11.34;100.00
45253;BME280;63171;50.520;30.486;2022-09-29T00:16:20;99066.28;;;11.29;100.00
45253;BME280;63171;50.520;30.486;2022-09-29T00:17:10;99070.56;;;11.30;100.00
45253;BME280;63171;50.520;30.486;2022-09-29T00:18:02;99064.72;;;11.37;100.00
45253;BME280;63171;50.520;30.486;2022-09-29T00:18:53;99071.38;;;11.19;100.00
45253;BME280;63171;50.520;30.486;2022-09-29T00:19:44;99068.06;;;11.39;100.00
45253;BME280;63171;50.520;30.486;2022-09-29T00:20:34;99067.22;;;11.39;100.00
45253;BME280;63171;50.520;30.486;2022-09-29T00:21:24;99062.25;;;11.36;100.00
45253;BME280;63171;50.520;30.486;2022-09-29T00:22:14;99068.28;;;11.47;100.00
45253;BME280;63171;50.520;30.486;2022-09-29T00:23:07;99070.81;;;11.38;100.00
45253;BME280;63171;50.520;30.486;2022-09-29T00:23:59;99067.19;;;10.94;100.00
45253;BME280;63171;50.520;30.486;2022-09-29T00:24:50;99055.88;;;10.82;100.00
45253;BME280;63171;50.520;30.486;2022-09-29T00:25:40;99064.00;;;11.02;100.00
45253;BME280;63171;50.520;30.486;2022-09-29T00:26:31;99059.22;;;10.84;100.00
45253;BME280;63171;50.520;30.486;2022-09-29T00:27:21;99065.97;;;10.76;100.00
45253;BME280;63171;50.520;30.486;2022-09-29T00:28:11;99064.22;;;10.87;100.00
45253;BME280;63171;50.520;30.486;2022-09-29T00:29:01;99072.81;;;11.01;100.00
45253;BME280;63171;50.520;30.486;2022-09-29T00:29:52;99076.50;;;10.98;100.00
45253;BME280;63171;50.520;30.486;2022-09-29T00:30:42;99068.84;;;10.95;100.00
45253;BME280;63171;50.520;30.486;2022-09-29T00:31:33;99072.56;;;10.92;100.00
45253;BME280;63171;50.520;30.486;2022-09-29T00:32:23;99075.91;;;11.06;100.00
45253;BME280;63171;50.520;30.486;2022-09-29T00:33:13;99075.19;;;11.04;100.00
45253;BME280;63171;50.520;30.486;2022-09-29T00:34:03;99067.78;;;10.86;100.00
45253;BME280;63171;50.520;30.486;2022-09-29T00:34:54;99079.94;;;10.87;100.00
45253;BME280;63171;50.520;30.486;2022-09-29T00:35:44;99075.44;;;11.01;100.00
45253;BME280;63171;50.520;30.486;2022-09-29T00:36:34;99075.66;;;11.20;100.00
45253;BME280;63171;50.520;30.486;2022-09-29T00:37:24;99082.72;;;11.31;100.00
45253;BME280;63171;50.520;30.486;2022-09-29T00:38:16;99086.63;;;11.03;100.00
45253;BME280;63171;50.520;30.486;2022-09-29T00:39:06;99089.91;;;10.71;100.00
45253;BME280;63171;50.520;30.486;2022-09-29T00:39:57;99088.25;;;10.70;100.00
45253;BME280;63171;50.520;30.486;2022-09-29T00:40:47;99092.25;;;10.63;100.00
45253;BME280;63171;50.520;30.486;2022-09-29T00:41:37;99090.19;;;10.90;100.00
45253;BME280;63171;50.520;30.486;2022-09-29T00:42:28;99090.94;;;11.15;100.00
45253;BME280;63171;50.520;30.486;2022-09-29T00:43:22;99085.44;;;11.18;100.00
45253;BME280;63171;50.520;30.486;2022-09-29T00:45:40;99087.63;;;11.35;100.00
45253;BME280;63171;50.520;30.486;2022-09-29T00:46:37;99084.88;;;11.37;100.00
45253;BME280;63171;50.520;30.486;2022-09-29T00:47:31;99089.75;;;11.41;100.00
45253;BME280;63171;50.520;30.486;2022-09-29T00:48:29;99088.09;;;11.40;100.00
45253;BME280;63171;50.520;30.486;2022-09-29T00:49:23;99081.63;;;11.33;100.00
45253;BME280;63171;50.520;30.486;2022-09-29T00:50:18;99091.91;;;11.36;100.00
45253;BME280;63171;50.520;30.486;2022-09-29T00:51:09;99087.13;;;11.41;100.00
45253;BME280;63171;50.520;30.486;2022-09-29T00:52:02;99088.41;;;11.47;100.00
45253;BME280;63171;50.520;30.486;2022-09-29T00:52:57;99089.16;;;11.49;100.00
45253;BME280;63171;50.520;30.486;2022-09-29T00:53:52;99093.44;;;11.28;100.00
45253;BME280;63171;50.520;30.486;2022-09-29T00:54:45;99091.91;;;11.36;100.00
45253;BME280;63171;50.520;30.486;2022-09-29T00:55:40;99095.00;;;11.41;100.00
45253;BME280;63171;50.520;30.486;2022-09-29T00:56:33;99094.63;;;11.46;100.00
45253;BME280;63171;50.520;30.486;2022-09-29T00:57:28;99093.19;;;11.42;100.00
45253;BME280;63171;50.520;30.486;2022-09-29T00:58:26;99097.13;;;11.47;100.00
45253;BME280;63171;50.520;30.486;2022-09-29T00:59:23;99092.13;;;11.44;100.00
45253;BME280;63171;50.520;30.486;2022-09-29T01:00:15;99094.75;;;11.44;100.00
45253;BME280;63171;50.520;30.486;2022-09-29T01:01:06;99098.78;;;11.48;100.00
45253;BME280;63171;50.520;30.486;2022-09-29T01:01:56;99090.31;;;11.34;100.00
45253;BME280;63171;50.520;30.486;2022-09-29T01:02:51;99093.69;;;11.36;100.00
45253;BME280;63171;50.520;30.486;2022-09-29T01:03:45;99090.09;;;11.25;100.00
45253;BME280;63171;50.520;30.486;2022-09-29T01:04:36;99093.78;;;11.01;100.00
45253;BME280;63171;50.520;30.486;2022-09-29T01:05:30;99099.50;;;11.17;100.00
45253;BME280;63171;50.520;30.486;2022-09-29T01:06:24;99100.22;;;11.19;100.00
45253;BME280;63171;50.520;30.486;2022-09-29T01:07:17;99095.78;;;11.08;100.00
45253;BME280;63171;50.520;30.486;2022-09-29T01:08:12;99094.97;;;11.19;100.00
45253;BME280;63171;50.520;30.486;2022-09-29T01:09:07;99106.78;;;11.24;100.00
45253;BME280;63171;50.520;30.486;2022-09-29T01:09:58;99099.69;;;10.91;100.00
45253;BME280;63171;50.520;30.486;2022-09-29T01:10:48;99101.91;;;10.62;100.00
45253;BME280;63171;50.520;30.486;2022-09-29T01:11:39;99104.41;;;10.64;100.00
45253;BME280;63171;50.520;30.486;2022-09-29T01:12:31;99108.38;;;10.81;100.00
45253;BME280;63171;50.520;30.486;2022-09-29T01:13:22;99103.78;;;10.95;100.00
45253;BME280;63171;50.520;30.486;2022-09-29T01:14:13;99102.47;;;11.01;100.00
45253;BME280;63171;50.520;30.486;2022-09-29T01:15:05;99114.13;;;11.08;100.00
45253;BME280;63171;50.520;30.486;2022-09-29T01:15:55;99108.44;;;11.14;100.00
45253;BME280;63171;50.520;30.486;2022-09-29T01:16:46;99106.78;;;11.13;100.00
45253;BME280;63171;50.520;30.486;2022-09-29T01:17:36;99104.63;;;11.18;100.00
45253;BME280;63171;50.520;30.486;2022-09-29T01:18:27;99109.84;;;10.96;100.00
45253;BME280;63171;50.520;30.486;2022-09-29T01:19:22;99109.09;;;10.83;100.00
45253;BME280;63171;50.520;30.486;2022-09-29T01:20:18;99101.75;;;10.99;100.00
45253;BME280;63171;50.520;30.486;2022-09-29T01:21:15;99107.97;;;10.63;100.00
45253;BME280;63171;50.520;30.486;2022-09-29T01:22:12;99108.44;;;10.68;100.00
45253;BME280;63171;50.520;30.486;2022-09-29T01:23:45;99108.22;;;10.36;100.00
45253;BME280;63171;50.520;30.486;2022-09-29T01:25:09;99106.56;;;9.98;100.00
45253;BME280;63171;50.520;30.486;2022-09-29T01:28:01;99105.09;;;10.07;100.00
45253;BME280;63171;50.520;30.486;2022-09-29T01:29:19;99105.72;;;9.98;100.00
45253;BME280;63171;50.520;30.486;2022-09-29T01:30:18;99117.53;;;9.80;100.00
45253;BME280;63171;50.520;30.486;2022-09-29T01:31:17;99114.78;;;9.81;100.00
45253;BME280;63171;50.520;30.486;2022-09-29T01:32:18;99115.50;;;9.83;100.00
45253;BME280;63171;50.520;30.486;2022-09-29T01:33:20;99109.22;;;9.86;100.00
45253;BME280;63171;50.520;30.486;2022-09-29T01:34:20;99108.50;;;9.84;100.00
45253;BME280;63171;50.520;30.486;2022-09-29T01:35:19;99110.91;;;10.11;100.00
45253;BME280;63171;50.520;30.486;2022-09-29T01:36:18;99113.94;;;10.17;100.00
45253;BME280;63171;50.520;30.486;2022-09-29T01:37:18;99115.31;;;10.10;100.00
45253;BME280;63171;50.520;30.486;2022-09-29T01:38:20;99109.13;;;10.11;100.00
45253;BME280;63171;50.520;30.486;2022-09-29T01:39:22;99114.91;;;10.16;100.00
45253;BME280;63171;50.520;30.486;2022-09-29T01:40:16;99123.97;;;10.47;100.00
45253;BME280;63171;50.520;30.486;2022-09-29T01:41:10;99118.47;;;10.39;100.00
45253;BME280;63171;50.520;30.486;2022-09-29T01:42:05;99121.03;;;10.28;100.00
45253;BME280;63171;50.520;30.486;2022-09-29T01:43:00;99127.34;;;10.13;100.00
45253;BME280;63171;50.520;30.486;2022-09-29T01:43:56;99127.56;;;10.10;100.00
45253;BME280;63171;50.520;30.486;2022-09-29T01:44:51;99125.13;;;10.19;100.00
45253;BME280;63171;50.520;30.486;2022-09-29T01:45:49;99130.25;;;10.21;100.00
45253;BME280;63171;50.520;30.486;2022-09-29T01:46:43;99133.09;;;10.18;100.00
45253;BME280;63171;50.520;30.486;2022-09-29T01:47:38;99126.19;;;10.17;100.00
45253;BME280;63171;50.520;30.486;2022-09-29T01:48:32;99134.03;;;10.17;100.00
45253;BME280;63171;50.520;30.486;2022-09-29T01:49:25;99132.19;;;10.43;100.00
45253;BME280;63171;50.520;30.486;2022-09-29T01:50:22;99134.09;;;10.52;100.00
45253;BME280;63171;50.520;30.486;2022-09-29T01:51:15;99135.28;;;10.48;100.00
45253;BME280;63171;50.520;30.486;2022-09-29T01:52:09;99136.19;;;10.35;100.00
45253;BME280;63171;50.520;30.486;2022-09-29T01:53:03;99136.47;;;10.55;100.00
45253;BME280;63171;50.520;30.486;2022-09-29T01:53:59;99135.00;;;10.40;100.00
45253;BME280;63171;50.520;30.486;2022-09-29T01:54:56;99138.41;;;10.29;100.00
45253;BME280;63171;50.520;30.486;2022-09-29T01:55:51;99139.50;;;10.38;100.00
45253;BME280;63171;50.520;30.486;2022-09-29T01:56:45;99139.44;;;10.26;100.00
45253;BME280;63171;50.520;30.486;2022-09-29T01:57:47;99140.06;;;10.54;100.00
45253;BME280;63171;50.520;30.486;2022-09-29T01:58:46;99142.59;;;10.55;100.00
45253;BME280;63171;50.520;30.486;2022-09-29T01:59:43;99137.66;;;10.27;100.00
45253;BME280;63171;50.520;30.486;2022-09-29T02:00:37;99138.38;;;10.42;100.00
45253;BME280;63171;50.520;30.486;2022-09-29T02:01:31;99149.38;;;10.34;100.00
45253;BME280;63171;50.520;30.486;2022-09-29T02:02:27;99153.56;;;10.36;100.00
45253;BME280;63171;50.520;30.486;2022-09-29T02:03:23;99145.59;;;10.38;100.00
45253;BME280;63171;50.520;30.486;2022-09-29T02:04:16;99147.00;;;10.18;100.00
45253;BME280;63171;50.520;30.486;2022-09-29T02:05:13;99151.34;;;10.06;100.00
45253;BME280;63171;50.520;30.486;2022-09-29T02:06:09;99153.34;;;10.03;100.00
45253;BME280;63171;50.520;30.486;2022-09-29T02:07:05;99149.19;;;10.24;100.00
45253;BME280;63171;50.520;30.486;2022-09-29T02:08:00;99153.38;;;10.51;100.00
45253;BME280;63171;50.520;30.486;2022-09-29T02:08:53;99148.19;;;10.62;100.00
45253;BME280;63171;50.520;30.486;2022-09-29T02:09:46;99155.03;;;10.52;100.00
45253;BME280;63171;50.520;30.486;2022-09-29T02:10:42;99156.06;;;10.38;100.00
45253;BME280;63171;50.520;30.486;2022-09-29T02:11:37;99151.03;;;10.35;100.00
45253;BME280;63171;50.520;30.486;2022-09-29T02:12:29;99156.63;;;10.30;100.00
45253;BME280;63171;50.520;30.486;2022-09-29T02:13:22;99151.53;;;10.16;100.00
45253;BME280;63171;50.520;30.486;2022-09-29T02:14:16;99149.44;;;10.21;100.00
45253;BME280;63171;50.520;30.486;2022-09-29T02:15:13;99153.66;;;10.35;100.00
45253;BME280;63171;50.520;30.486;2022-09-29T02:16:10;99151.19;;;10.21;100.00
45253;BME280;63171;50.520;30.486;2022-09-29T02:17:07;99151.41;;;10.30;100.00
45253;BME280;63171;50.520;30.486;2022-09-29T02:18:06;99149.81;;;10.28;100.00
45253;BME280;63171;50.520;30.486;2022-09-29T02:19:02;99149.19;;;10.24;100.00
45253;BME280;63171;50.520;30.486;2022-09-29T02:19:54;99154.78;;;10.44;100.00
45253;BME280;63171;50.520;30.486;2022-09-29T02:20:45;99157.13;;;10.35;100.00
45253;BME280;63171;50.520;30.486;2022-09-29T02:21:36;99151.03;;;10.35;100.00
45253;BME280;63171;50.520;30.486;2022-09-29T02:22:25;99154.75;;;10.20;100.00
45253;BME280;63171;50.520;30.486;2022-09-29T02:23:17;99158.19;;;10.20;100.00
45253;BME280;63171;50.520;30.486;2022-09-29T02:24:07;99156.53;;;10.19;100.00
45253;BME280;63171;50.520;30.486;2022-09-29T02:24:58;99152.38;;;10.41;100.00
45253;BME280;63171;50.520;30.486;2022-09-29T02:25:50;99155.41;;;10.47;100.00
45253;BME280;63171;50.520;30.486;2022-09-29T02:26:42;99151.69;;;10.74;100.00
45253;BME280;63171;50.520;30.486;2022-09-29T02:27:34;99150.31;;;10.92;100.00
45253;BME280;63171;50.520;30.486;2022-09-29T02:28:25;99154.31;;;11.09;100.00
45253;BME280;63171;50.520;30.486;2022-09-29T02:29:16;99157.63;;;11.11;100.00
45253;BME280;63171;50.520;30.486;2022-09-29T02:30:09;99160.00;;;11.03;100.00
45253;BME280;63171;50.520;30.486;2022-09-29T02:30:59;99155.13;;;11.09;100.00
45253;BME280;63171;50.520;30.486;2022-09-29T02:31:50;99150.13;;;11.17;100.00
45253;BME280;63171;50.520;30.486;2022-09-29T02:32:40;99151.34;;;11.24;100.00
45253;BME280;63171;50.520;30.486;2022-09-29T02:33:32;99161.41;;;10.95;100.00
45253;BME280;63171;50.520;30.486;2022-09-29T02:34:22;99154.53;;;10.71;100.00
45253;BME280;63171;50.520;30.486;2022-09-29T02:35:14;99164.63;;;10.64;100.00
45253;BME280;63171;50.520;30.486;2022-09-29T02:36:14;99155.50;;;10.46;100.00
45253;BME280;63171;50.520;30.486;2022-09-29T02:37:17;99159.13;;;10.32;100.00
45253;BME280;63171;50.520;30.486;2022-09-29T02:38:15;99158.59;;;10.27;100.00
45253;BME280;63171;50.520;30.486;2022-09-29T02:39:14;99155.09;;;10.39;100.00
45253;BME280;63171;50.520;30.486;2022-09-29T02:40:27;99160.06;;;10.31;100.00
45253;BME280;63171;50.520;30.486;2022-09-29T02:41:31;99165.38;;;10.42;100.00
45253;BME280;63171;50.520;30.486;2022-09-29T02:42:27;99163.75;;;10.28;100.00
45253;BME280;63171;50.520;30.486;2022-09-29T02:43:47;99157.22;;;10.34;100.00
45253;BME280;63171;50.520;30.486;2022-09-29T02:44:52;99155.28;;;10.49;100.00
45253;BME280;63171;50.520;30.486;2022-09-29T02:45:57;99156.94;;;10.50;100.00
45253;BME280;63171;50.520;30.486;2022-09-29T02:47:04;99153.44;;;10.38;100.00
45253;BME280;63171;50.520;30.486;2022-09-29T02:48:11;99160.06;;;10.31;100.00
45253;BME280;63171;50.520;30.486;2022-09-29T02:49:14;99156.28;;;10.35;100.00
45253;BME280;63171;50.520;30.486;2022-09-29T02:50:41;99154.69;;;10.45;100.00
45253;BME280;63171;50.520;30.486;2022-09-29T02:51:36;99167.69;;;10.34;100.00
45253;BME280;63171;50.520;30.486;2022-09-29T02:52:34;99170.56;;;10.31;100.00
45253;BME280;63171;50.520;30.486;2022-09-29T02:53:39;99165.09;;;10.34;100.00
45253;BME280;63171;50.520;30.486;2022-09-29T02:54:45;99161.53;;;10.35;100.00
45253;BME280;63171;50.520;30.486;2022-09-29T02:55:42;99167.47;;;10.37;100.00
45253;BME280;63171;50.520;30.486;2022-09-29T02:56:38;99162.97;;;10.39;100.00
45253;BME280;63171;50.520;30.486;2022-09-29T02:57:33;99164.31;;;10.45;100.00
45253;BME280;63171;50.520;30.486;2022-09-29T02:58:33;99166.41;;;10.40;100.00
45253;BME280;63171;50.520;30.486;2022-09-29T02:59:31;99165.03;;;10.23;100.00
45253;BME280;63171;50.520;30.486;2022-09-29T03:00:27;99161.66;;;10.21;100.00
45253;BME280;63171;50.520;30.486;2022-09-29T03:01:17;99171.16;;;10.34;100.00
45253;BME280;63171;50.520;30.486;2022-09-29T03:02:08;99165.31;;;10.31;100.00
45253;BME280;63171;50.520;30.486;2022-09-29T03:02:57;99166.22;;;10.43;100.00
45253;BME280;63171;50.520;30.486;2022-09-29T03:03:48;99170.03;;;10.50;100.00
45253;BME280;63171;50.520;30.486;2022-09-29T03:04:39;99170.38;;;10.45;100.00
45253;BME280;63171;50.520;30.486;2022-09-29T03:05:30;99160.69;;;10.34;100.00
45253;BME280;63171;50.520;30.486;2022-09-29T03:06:20;99164.69;;;10.27;100.00
45253;BME280;63171;50.520;30.486;2022-09-29T03:07:11;99173.31;;;10.41;100.00
45253;BME280;63171;50.520;30.486;2022-09-29T03:08:01;99162.06;;;10.51;100.00
45253;BME280;63171;50.520;30.486;2022-09-29T03:08:52;99165.16;;;10.45;100.00
45253;BME280;63171;50.520;30.486;2022-09-29T03:09:42;99169.38;;;10.59;100.00
45253;BME280;63171;50.520;30.486;2022-09-29T03:10:32;99170.53;;;10.55;100.00
45253;BME280;63171;50.520;30.486;2022-09-29T03:11:22;99169.03;;;10.40;100.00
45253;BME280;63171;50.520;30.486;2022-09-29T03:12:13;99170.75;;;10.28;100.00
45253;BME280;63171;50.520;30.486;2022-09-29T03:13:03;99170.09;;;10.37;100.00
45253;BME280;63171;50.520;30.486;2022-09-29T03:13:54;99165.53;;;10.52;100.00
45253;BME280;63171;50.520;30.486;2022-09-29T03:14:44;99160.22;;;10.64;100.00
45253;BME280;63171;50.520;30.486;2022-09-29T03:15:35;99165.78;;;10.84;100.00
45253;BME280;63171;50.520;30.486;2022-09-29T03:16:24;99162.69;;;10.90;100.00
45253;BME280;63171;50.520;30.486;2022-09-29T03:17:15;99168.31;;;10.97;100.00
45253;BME280;63171;50.520;30.486;2022-09-29T03:18:05;99172.66;;;11.09;100.00
45253;BME280;63171;50.520;30.486;2022-09-29T03:18:57;99164.44;;;11.24;100.00
45253;BME280;63171;50.520;30.486;2022-09-29T03:19:48;99166.84;;;11.28;100.00
45253;BME280;63171;50.520;30.486;2022-09-29T03:20:39;99173.91;;;11.03;100.00
45253;BME280;63171;50.520;30.486;2022-09-29T03:21:28;99173.00;;;11.15;100.00
45253;BME280;63171;50.520;30.486;2022-09-29T03:22:19;99169.91;;;11.21;100.00
45253;BME280;63171;50.520;30.486;2022-09-29T03:23:09;99168.97;;;11.22;100.00
45253;BME280;63171;50.520;30.486;2022-09-29T03:24:10;99177.03;;;10.97;100.00
45253;BME280;63171;50.520;30.486;2022-09-29T03:25:00;99170.94;;;11.08;100.00
45253;BME280;63171;50.520;30.486;2022-09-29T03:25:51;99165.41;;;11.23;100.00
45253;BME280;63171;50.520;30.486;2022-09-29T03:26:40;99170.75;;;11.33;100.00
45253;BME280;63171;50.520;30.486;2022-09-29T03:27:32;99166.50;;;11.43;100.00
45253;BME280;63171;50.520;30.486;2022-09-29T03:28:21;99168.41;;;11.41;100.00
45253;BME280;63171;50.520;30.486;2022-09-29T03:29:12;99167.44;;;11.31;100.00
45253;BME280;63171;50.520;30.486;2022-09-29T03:30:02;99167.81;;;11.38;100.00
45253;BME280;63171;50.520;30.486;2022-09-29T03:30:52;99165.91;;;11.40;100.00
45253;BME280;63171;50.520;30.486;2022-09-29T03:31:43;99166.13;;;11.48;100.00
45253;BME280;63171;50.520;30.486;2022-09-29T03:32:33;99167.19;;;11.34;100.00
45253;BME280;63171;50.520;30.486;2022-09-29T03:33:24;99164.59;;;11.45;100.00
45253;BME280;63171;50.520;30.486;2022-09-29T03:34:14;99167.47;;;11.53;100.00
45253;BME280;63171;50.520;30.486;2022-09-29T03:35:07;99173.78;;;11.51;100.00
45253;BME280;63171;50.520;30.486;2022-09-29T03:35:57;99166.72;;;11.40;100.00
45253;BME280;63171;50.520;30.486;2022-09-29T03:36:48;99172.34;;;11.36;100.00
45253;BME280;63171;50.520;30.486;2022-09-29T03:37:39;99167.53;;;11.30;100.00
45253;BME280;63171;50.520;30.486;2022-09-29T03:38:28;99172.22;;;11.37;100.00
45253;BME280;63171;50.520;30.486;2022-09-29T03:39:19;99183.88;;;11.33;100.00
45253;BME280;63171;50.520;30.486;2022-09-29T03:40:09;99177.56;;;11.47;100.00
45253;BME280;63171;50.520;30.486;2022-09-29T03:41:00;99176.63;;;11.48;100.00
45253;BME280;63171;50.520;30.486;2022-09-29T03:41:50;99174.00;;;11.48;100.00
45253;BME280;63171;50.520;30.486;2022-09-29T03:42:44;99175.53;;;11.62;100.00
45253;BME280;63171;50.520;30.486;2022-09-29T03:43:34;99178.41;;;11.70;100.00
45253;BME280;63171;50.520;30.486;2022-09-29T03:44:25;99177.97;;;11.65;100.00
45253;BME280;63171;50.520;30.486;2022-09-29T03:45:15;99178.41;;;11.59;100.00
45253;BME280;63171;50.520;30.486;2022-09-29T03:46:06;99186.16;;;11.60;100.00
45253;BME280;63171;50.520;30.486;2022-09-29T03:46:55;99182.25;;;11.54;100.00
45253;BME280;63171;50.520;30.486;2022-09-29T03:47:46;99181.31;;;10.98;100.00
45253;BME280;63171;50.520;30.486;2022-09-29T03:48:36;99189.06;;;10.76;100.00
45253;BME280;63171;50.520;30.486;2022-09-29T03:49:28;99192.41;;;10.54;100.00
45253;BME280;63171;50.520;30.486;2022-09-29T03:50:19;99189.44;;;10.47;100.00
45253;BME280;63171;50.520;30.486;2022-09-29T03:51:10;99194.78;;;10.46;100.00
45253;BME280;63171;50.520;30.486;2022-09-29T03:52:00;99193.75;;;10.35;100.00
45253;BME280;63171;50.520;30.486;2022-09-29T03:52:51;99194.88;;;10.44;100.00
45253;BME280;63171;50.520;30.486;2022-09-29T03:53:40;99193.47;;;10.27;100.00
45253;BME280;63171;50.520;30.486;2022-09-29T03:54:31;99199.09;;;10.34;100.00
45253;BME280;63171;50.520;30.486;2022-09-29T03:55:21;99199.44;;;10.53;100.00
45253;BME280;63171;50.520;30.486;2022-09-29T03:56:12;99200.97;;;10.69;100.00
45253;BME280;63171;50.520;30.486;2022-09-29T03:57:02;99200.19;;;10.90;100.00
45253;BME280;63171;50.520;30.486;2022-09-29T03:57:53;99195.97;;;11.01;100.00
45253;BME280;63171;50.520;30.486;2022-09-29T03:58:42;99199.84;;;10.95;100.00
45253;BME280;63171;50.520;30.486;2022-09-29T03:59:33;99204.56;;;11.14;100.00
45253;BME280;63171;50.520;30.486;2022-09-29T04:00:23;99213.41;;;11.24;100.00
45253;BME280;63171;50.520;30.486;2022-09-29T04:01:14;99209.59;;;11.28;100.00
45253;BME280;63171;50.520;30.486;2022-09-29T04:02:04;99209.63;;;11.39;100.00
45253;BME280;63171;50.520;30.486;2022-09-29T04:02:55;99211.44;;;11.39;100.00
45253;BME280;63171;50.520;30.486;2022-09-29T04:03:45;99215.34;;;11.44;100.00
45253;BME280;63171;50.520;30.486;2022-09-29T04:04:36;99219.19;;;11.51;100.00
45253;BME280;63171;50.520;30.486;2022-09-29T04:05:27;99216.31;;;11.54;100.00
45253;BME280;63171;50.520;30.486;2022-09-29T04:06:18;99222.78;;;11.50;100.00
45253;BME280;63171;50.520;30.486;2022-09-29T04:07:08;99217.53;;;11.50;100.00
45253;BME280;63171;50.520;30.486;2022-09-29T04:07:59;99226.94;;;11.53;100.00
45253;BME280;63171;50.520;30.486;2022-09-29T04:08:49;99225.16;;;11.53;100.00
45253;BME280;63171;50.520;30.486;2022-09-29T04:09:39;99220.84;;;11.52;100.00
45253;BME280;63171;50.520;30.486;2022-09-29T04:10:29;99223.38;;;11.65;100.00
45253;BME280;63171;50.520;30.486;2022-09-29T04:11:20;99220.03;;;11.74;100.00
45253;BME280;63171;50.520;30.486;2022-09-29T04:12:10;99227.69;;;11.77;100.00
45253;BME280;63171;50.520;30.486;2022-09-29T04:13:01;99221.72;;;11.75;100.00
45253;BME280;63171;50.520;30.486;2022-09-29T04:13:50;99227.06;;;11.74;100.00
45253;BME280;63171;50.520;30.486;2022-09-29T04:14:41;99227.44;;;11.69;100.00
45253;BME280;63171;50.520;30.486;2022-09-29T04:15:32;99225.41;;;11.73;100.00
45253;BME280;63171;50.520;30.486;2022-09-29T04:16:22;99223.72;;;11.72;100.00
45253;BME280;63171;50.520;30.486;2022-09-29T04:17:12;99228.25;;;11.70;100.00
45253;BME280;63171;50.520;30.486;2022-09-29T04:18:03;99223.97;;;11.69;100.00
45253;BME280;63171;50.520;30.486;2022-09-29T04:18:54;99229.34;;;11.78;100.00
45253;BME280;63171;50.520;30.486;2022-09-29T04:19:45;99232.31;;;11.74;100.00
45253;BME280;63171;50.520;30.486;2022-09-29T04:20:36;99229.81;;;11.72;100.00
45253;BME280;63171;50.520;30.486;2022-09-29T04:21:27;99223.28;;;11.78;100.00
45253;BME280;63171;50.520;30.486;2022-09-29T04:22:17;99224.94;;;11.68;100.00
45253;BME280;63171;50.520;30.486;2022-09-29T04:23:07;99226.72;;;11.67;100.00
45253;BME280;63171;50.520;30.486;2022-09-29T04:23:57;99222.44;;;11.77;100.00
45253;BME280;63171;50.520;30.486;2022-09-29T04:24:48;99231.16;;;11.78;100.00
45253;BME280;63171;50.520;30.486;2022-09-29T04:25:37;99224.56;;;11.72;100.00
45253;BME280;63171;50.520;30.486;2022-09-29T04:26:28;99224.81;;;11.69;100.00
45253;BME280;63171;50.520;30.486;2022-09-29T04:27:18;99227.66;;;11.66;100.00
45253;BME280;63171;50.520;30.486;2022-09-29T04:28:08;99230.75;;;11.60;100.00
45253;BME280;63171;50.520;30.486;2022-09-29T04:28:58;99233.88;;;11.65;100.00
45253;BME280;63171;50.520;30.486;2022-09-29T04:29:49;99238.19;;;11.77;100.00
45253;BME280;63171;50.520;30.486;2022-09-29T04:30:39;99227.34;;;11.82;100.00
45253;BME280;63171;50.520;30.486;2022-09-29T04:31:30;99231.34;;;11.75;100.00
45253;BME280;63171;50.520;30.486;2022-09-29T04:32:20;99231.72;;;11.70;100.00
45253;BME280;63171;50.520;30.486;2022-09-29T04:33:11;99241.13;;;11.73;100.00
45253;BME280;63171;50.520;30.486;2022-09-29T04:34:01;99233.16;;;11.74;100.00
45253;BME280;63171;50.520;30.486;2022-09-29T04:34:52;99233.16;;;11.74;100.00
45253;BME280;63171;50.520;30.486;2022-09-29T04:35:43;99232.44;;;11.72;100.00
45253;BME280;63171;50.520;30.486;2022-09-29T04:36:34;99232.56;;;11.71;100.00
45253;BME280;63171;50.520;30.486;2022-09-29T04:37:24;99238.09;;;11.79;100.00
45253;BME280;63171;50.520;30.486;2022-09-29T04:38:15;99238.56;;;11.84;100.00